Time,TemperatureF,DewpointF,PressureIn,WindDirection,WindDirectionDegrees,WindSpeedMPH,WindSpeedGustMPH,Humidity,HourlyPrecipIn,Conditions,Clouds,dailyrainin,SoftwareType,DateUTC
2013-10-12 00:00:00,48.2,34.5,30.08,NNW,339,0.0,1.0,59,0.00,,,0.00,Wunderground v.1.15,2013-10-12 06:00:00,
2013-10-12 00:10:00,48.1,34.9,30.09,NNW,338,0.0,0.0,60,0.00,,,0.00,Wunderground v.1.15,2013-10-12 06:10:00,
2013-10-12 00:20:00,47.9,34.7,30.09,NNW,339,0.0,0.0,60,0.00,,,0.00,Wunderground v.1.15,2013-10-12 06:20:00,
2013-10-12 00:30:00,47.9,34.3,30.09,NNW,339,0.0,0.0,59,0.00,,,0.00,Wunderground v.1.15,2013-10-12 06:30:00,
2013-10-12 00:40:00,47.8,34.6,30.08,NNW,338,1.0,1.0,60,0.00,,,0.00,Wunderground v.1.15,2013-10-12 06:40:00,
2013-10-12 00:50:00,47.6,34.4,30.08,NNW,338,1.0,1.0,60,0.00,,,0.00,Wunderground v.1.15,2013-10-12 06:50:00,
2013-10-12 01:00:00,47.0,34.2,30.09,NNW,338,0.0,0.0,61,0.00,,,0.00,Wunderground v.1.15,2013-10-12 07:00:00,
2013-10-12 01:10:00,46.5,34.2,30.09,NNW,338,0.0,1.0,62,0.00,,,0.00,Wunderground v.1.15,2013-10-12 07:10:00,
2013-10-12 01:20:00,46.2,34.3,30.10,NNW,339,0.0,1.0,63,0.00,,,0.00,Wunderground v.1.15,2013-10-12 07:20:00,
2013-10-12 01:30:00,45.7,34.6,30.10,NNW,338,0.0,1.0,65,0.00,,,0.00,Wunderground v.1.15,2013-10-12 07:30:00,
2013-10-12 01:40:00,45.3,34.2,30.10,NNW,338,0.0,1.0,65,0.00,,,0.00,Wunderground v.1.15,2013-10-12 07:40:00,
2013-10-12 01:50:00,45.1,34.8,30.11,NNW,338,0.0,1.0,67,0.00,,,0.00,Wunderground v.1.15,2013-10-12 07:50:00,
2013-10-12 02:00:00,44.9,35.0,30.11,NNW,338,0.0,1.0,68,0.00,,,0.00,Wunderground v.1.15,2013-10-12 08:00:00,
2013-10-12 02:10:00,44.1,34.6,30.11,NNW,338,0.0,1.0,69,0.00,,,0.00,Wunderground v.1.15,2013-10-12 08:10:00,
2013-10-12 02:20:00,44.0,34.5,30.11,NNW,338,0.0,1.0,69,0.00,,,0.00,Wunderground v.1.15,2013-10-12 08:20:00,
2013-10-12 02:30:00,44.6,34.3,30.11,NNW,338,0.0,2.0,67,0.00,,,0.00,Wunderground v.1.15,2013-10-12 08:30:00,
2013-10-12 02:40:00,45.7,34.2,30.11,NNW,335,1.0,1.0,64,0.00,,,0.00,Wunderground v.1.15,2013-10-12 08:40:00,
2013-10-12 02:50:00,46.2,34.3,30.11,NNW,335,1.0,2.0,63,0.00,,,0.00,Wunderground v.1.15,2013-10-12 08:50:00,
2013-10-12 03:00:00,46.1,34.2,30.11,NNW,335,1.0,1.0,63,0.00,,,0.00,Wunderground v.1.15,2013-10-12 09:00:00,
2013-10-12 03:10:00,45.8,33.9,30.10,NNW,335,0.0,1.0,63,0.00,,,0.00,Wunderground v.1.15,2013-10-12 09:10:00,
2013-10-12 03:20:00,45.4,34.3,30.10,NNW,335,1.0,4.0,65,0.00,,,0.00,Wunderground v.1.15,2013-10-12 09:20:00,
2013-10-12 03:30:00,45.2,34.1,30.10,NNW,335,1.0,1.0,65,0.00,,,0.00,Wunderground v.1.15,2013-10-12 09:30:00,
2013-10-12 03:40:00,45.1,34.4,30.11,NNW,335,0.0,1.0,66,0.00,,,0.00,Wunderground v.1.15,2013-10-12 09:40:00,
2013-10-12 03:50:00,44.0,34.5,30.11,NNW,335,0.0,1.0,69,0.00,,,0.00,Wunderground v.1.15,2013-10-12 09:50:00,
2013-10-12 04:00:00,42.8,34.4,30.11,NNW,335,0.0,1.0,72,0.00,,,0.00,Wunderground v.1.15,2013-10-12 10:00:00,
2013-10-12 04:10:00,42.0,34.3,30.11,NNW,335,0.0,1.0,74,0.00,,,0.00,Wunderground v.1.15,2013-10-12 10:10:00,
2013-10-12 04:20:00,41.7,34.4,30.11,NNW,335,0.0,1.0,75,0.00,,,0.00,Wunderground v.1.15,2013-10-12 10:20:00,
2013-10-12 04:30:00,41.6,34.3,30.10,NNW,335,0.0,1.0,75,0.00,,,0.00,Wunderground v.1.15,2013-10-12 10:30:00,
2013-10-12 04:40:00,41.3,34.3,30.11,NNW,335,0.0,1.0,76,0.00,,,0.00,Wunderground v.1.15,2013-10-12 10:40:00,
2013-10-12 04:50:00,41.3,34.3,30.11,NNW,335,0.0,1.0,76,0.00,,,0.00,Wunderground v.1.15,2013-10-12 10:50:00,
2013-10-12 05:00:00,42.4,34.4,30.11,NNW,335,1.0,2.0,73,0.00,,,0.00,Wunderground v.1.15,2013-10-12 11:00:00,
2013-10-12 05:10:00,42.4,34.0,30.11,NNW,335,1.0,1.0,72,0.00,,,0.00,Wunderground v.1.15,2013-10-12 11:10:00,
2013-10-12 05:20:00,42.5,33.8,30.11,NNW,335,1.0,1.0,71,0.00,,,0.00,Wunderground v.1.15,2013-10-12 11:20:00,
2013-10-12 05:30:00,42.7,33.9,30.11,NNW,335,1.0,1.0,71,0.00,,,0.00,Wunderground v.1.15,2013-10-12 11:30:00,
2013-10-12 05:40:00,42.6,33.5,30.12,NNW,335,0.0,1.0,70,0.00,,,0.00,Wunderground v.1.15,2013-10-12 11:40:00,
2013-10-12 05:50:00,42.8,33.3,30.12,NNW,335,1.0,1.0,69,0.00,,,0.00,Wunderground v.1.15,2013-10-12 11:50:00,
2013-10-12 06:00:00,42.6,33.1,30.12,NNW,335,1.0,1.0,69,0.00,,,0.00,Wunderground v.1.15,2013-10-12 12:00:00,
2013-10-12 06:10:00,42.5,33.0,30.12,NNW,335,2.0,6.0,69,0.00,,,0.00,Wunderground v.1.15,2013-10-12 12:10:00,
2013-10-12 06:20:00,42.2,33.1,30.13,NNW,335,1.0,2.0,70,0.00,,,0.00,Wunderground v.1.15,2013-10-12 12:20:00,
2013-10-12 06:30:00,42.0,32.9,30.13,NNW,335,1.0,1.0,70,0.00,,,0.00,Wunderground v.1.15,2013-10-12 12:30:00,
2013-10-12 06:40:00,41.7,33.0,30.13,NNW,335,0.0,1.0,71,0.00,,,0.00,Wunderground v.1.15,2013-10-12 12:40:00,
2013-10-12 06:50:00,41.6,32.9,30.13,NNW,335,1.0,4.0,71,0.00,,,0.00,Wunderground v.1.15,2013-10-12 12:50:00,
2013-10-12 07:00:00,41.2,32.9,30.13,NNW,333,1.0,1.0,72,0.00,,,0.00,Wunderground v.1.15,2013-10-12 13:00:00,
2013-10-12 07:10:00,41.0,32.7,30.14,NNW,333,1.0,2.0,72,0.00,,,0.00,Wunderground v.1.15,2013-10-12 13:10:00,
2013-10-12 07:20:00,40.7,32.7,30.14,NNW,333,1.0,1.0,73,0.00,,,0.00,Wunderground v.1.15,2013-10-12 13:20:00,
2013-10-12 07:30:00,40.5,33.2,30.15,NNW,333,2.0,2.0,75,0.00,,,0.00,Wunderground v.1.15,2013-10-12 13:30:00,
2013-10-12 07:40:00,40.7,33.4,30.15,NNW,334,1.0,1.0,75,0.00,,,0.00,Wunderground v.1.15,2013-10-12 13:40:00,
2013-10-12 07:50:00,41.1,33.4,30.15,NNW,331,2.0,3.0,74,0.00,,,0.00,Wunderground v.1.15,2013-10-12 13:50:00,
2013-10-12 08:00:00,41.4,33.4,30.16,NNW,327,2.0,6.0,73,0.00,,,0.00,Wunderground v.1.15,2013-10-12 14:00:00,
2013-10-12 08:10:00,41.6,33.6,30.16,NNW,327,2.0,2.0,73,0.00,,,0.00,Wunderground v.1.15,2013-10-12 14:10:00,
2013-10-12 08:20:00,42.5,34.5,30.17,NNW,327,1.0,1.0,73,0.00,,,0.00,Wunderground v.1.15,2013-10-12 14:20:00,
2013-10-12 08:30:00,43.6,34.8,30.17,NNW,327,1.0,3.0,71,0.00,,,0.00,Wunderground v.1.15,2013-10-12 14:30:00,
2013-10-12 08:40:00,44.4,34.9,30.18,NNW,327,1.0,1.0,69,0.00,,,0.00,Wunderground v.1.15,2013-10-12 14:40:00,
2013-10-12 08:50:00,44.9,35.0,30.18,NNW,327,1.0,1.0,68,0.00,,,0.00,Wunderground v.1.15,2013-10-12 14:50:00,
2013-10-12 09:00:00,46.0,35.7,30.18,NNW,327,1.0,1.0,67,0.00,,,0.00,Wunderground v.1.15,2013-10-12 15:00:00,
2013-10-12 09:20:00,48.1,35.7,30.18,NNW,327,1.0,1.0,62,0.00,,,0.00,Wunderground v.1.15,2013-10-12 15:20:00,
2013-10-12 09:30:00,48.3,35.5,30.18,NNW,327,2.0,2.0,61,0.00,,,0.00,Wunderground v.1.15,2013-10-12 15:30:00,
2013-10-12 09:40:00,48.7,35.4,30.18,NNW,327,2.0,2.0,60,0.00,,,0.00,Wunderground v.1.15,2013-10-12 15:40:00,
2013-10-12 09:50:00,48.4,35.1,30.18,NW,323,4.0,4.0,60,0.00,,,0.00,Wunderground v.1.15,2013-10-12 15:50:00,
2013-10-12 10:00:00,49.2,35.0,30.18,NW,324,3.0,3.0,58,0.00,,,0.00,Wunderground v.1.15,2013-10-12 16:00:00,
2013-10-12 10:10:00,50.7,35.1,30.18,NNW,340,2.0,4.0,55,0.00,,,0.00,Wunderground v.1.15,2013-10-12 16:10:00,
2013-10-12 10:20:00,51.3,35.2,30.18,North,355,3.0,5.0,54,0.00,,,0.00,Wunderground v.1.15,2013-10-12 16:20:00,
2013-10-12 10:30:00,52.2,35.6,30.18,NNW,344,2.0,2.0,53,0.00,,,0.00,Wunderground v.1.15,2013-10-12 16:30:00,
2013-10-12 10:40:00,52.8,35.6,30.18,NNW,333,3.0,4.0,52,0.00,,,0.00,Wunderground v.1.15,2013-10-12 16:40:00,
2013-10-12 10:50:00,53.5,34.8,30.17,NNW,330,3.0,4.0,49,0.00,,,0.00,Wunderground v.1.15,2013-10-12 16:50:00,
2013-10-12 11:00:00,54.4,35.1,30.17,NNW,338,3.0,3.0,48,0.00,,,0.00,Wunderground v.1.15,2013-10-12 17:00:00,
2013-10-12 11:10:00,54.9,35.0,30.17,NNW,344,3.0,3.0,47,0.00,,,0.00,Wunderground v.1.15,2013-10-12 17:10:00,
2013-10-12 11:20:00,56.5,35.4,30.17,NNW,336,2.0,5.0,45,0.00,,,0.00,Wunderground v.1.15,2013-10-12 17:20:00,
2013-10-12 11:30:00,56.4,34.7,30.16,NNW,327,3.0,3.0,44,0.00,,,0.00,Wunderground v.1.15,2013-10-12 17:30:00,
2013-10-12 11:40:00,57.7,34.7,30.16,NNW,327,2.0,3.0,42,0.00,,,0.00,Wunderground v.1.15,2013-10-12 17:40:00,
2013-10-12 11:50:00,58.4,34.8,30.16,NNW,327,2.0,4.0,41,0.00,,,0.00,Wunderground v.1.15,2013-10-12 17:50:00,
2013-10-12 12:00:00,59.9,34.9,30.15,NNW,327,1.0,1.0,39,0.00,,,0.00,Wunderground v.1.15,2013-10-12 18:00:00,
2013-10-12 12:10:00,59.7,34.7,30.15,NNW,328,1.0,1.0,39,0.00,,,0.00,Wunderground v.1.15,2013-10-12 18:10:00,
2013-10-12 12:20:00,59.6,34.6,30.14,NNW,328,1.0,1.0,39,0.00,,,0.00,Wunderground v.1.15,2013-10-12 18:20:00,
2013-10-12 12:30:00,60.3,34.6,30.13,NNW,338,1.0,1.0,38,0.00,,,0.00,Wunderground v.1.15,2013-10-12 18:30:00,
2013-10-12 12:40:00,61.2,34.7,30.13,North,351,2.0,2.0,37,0.00,,,0.00,Wunderground v.1.15,2013-10-12 18:40:00,
2013-10-12 12:50:00,61.9,35.3,30.12,North,351,1.0,2.0,37,0.00,,,0.00,Wunderground v.1.15,2013-10-12 18:50:00,
2013-10-12 13:00:00,61.8,35.2,30.12,North,355,1.0,1.0,37,0.00,,,0.00,Wunderground v.1.15,2013-10-12 19:00:00,
2013-10-12 13:10:00,63.9,35.0,30.11,North,355,0.0,1.0,34,0.00,,,0.00,Wunderground v.1.15,2013-10-12 19:10:00,
2013-10-12 13:20:00,64.8,35.0,30.10,North,355,1.0,1.0,33,0.00,,,0.00,Wunderground v.1.15,2013-10-12 19:20:00,
2013-10-12 13:30:00,64.3,34.6,30.09,NW,311,2.0,2.0,33,0.00,,,0.00,Wunderground v.1.15,2013-10-12 19:30:00,
2013-10-12 13:40:00,64.7,34.9,30.09,NW,311,1.0,1.0,33,0.00,,,0.00,Wunderground v.1.15,2013-10-12 19:40:00,
2013-10-12 13:50:00,65.2,34.6,30.08,WNW,286,2.0,2.0,32,0.00,,,0.00,Wunderground v.1.15,2013-10-12 19:50:00,
2013-10-12 14:00:00,65.9,35.2,30.08,WSW,246,2.0,6.0,32,0.00,,,0.00,Wunderground v.1.15,2013-10-12 20:00:00,
2013-10-12 14:10:00,66.8,35.2,30.07,WSW,246,1.0,3.0,31,0.00,,,0.00,Wunderground v.1.15,2013-10-12 20:10:00,
2013-10-12 14:20:00,66.3,34.7,30.07,South,176,2.0,4.0,31,0.00,,,0.00,Wunderground v.1.15,2013-10-12 20:20:00,
2013-10-12 14:30:00,67.9,35.3,30.06,South,172,1.0,1.0,30,0.00,,,0.00,Wunderground v.1.15,2013-10-12 20:30:00,
2013-10-12 14:40:00,67.3,34.8,30.06,SSE,167,3.0,4.0,30,0.00,,,0.00,Wunderground v.1.15,2013-10-12 20:40:00,
2013-10-12 14:50:00,66.8,34.3,30.06,SE,140,5.0,5.0,30,0.00,,,0.00,Wunderground v.1.15,2013-10-12 20:50:00,
2013-10-12 15:00:00,67.2,33.8,30.05,East,100,3.0,5.0,29,0.00,,,0.00,Wunderground v.1.15,2013-10-12 21:00:00,
2013-10-12 15:10:00,67.7,34.3,30.05,South,169,2.0,2.0,29,0.00,,,0.00,Wunderground v.1.15,2013-10-12 21:10:00,
2013-10-12 15:20:00,68.4,34.0,30.04,SE,143,3.0,3.0,28,0.00,,,0.00,Wunderground v.1.15,2013-10-12 21:20:00,
2013-10-12 15:30:00,68.8,33.4,30.04,South,179,4.0,7.0,27,0.00,,,0.00,Wunderground v.1.15,2013-10-12 21:30:00,
2013-10-12 15:40:00,68.8,33.4,30.04,SSW,209,5.0,7.0,27,0.00,,,0.00,Wunderground v.1.15,2013-10-12 21:40:00,
2013-10-12 15:50:00,69.8,33.3,30.03,SW,217,3.0,3.0,26,0.00,,,0.00,Wunderground v.1.15,2013-10-12 21:50:00,
2013-10-12 16:00:00,70.6,33.0,30.02,SW,227,2.0,4.0,25,0.00,,,0.00,Wunderground v.1.15,2013-10-12 22:00:00,
2013-10-12 16:10:00,70.3,32.8,30.02,SSW,207,3.0,3.0,25,0.00,,,0.00,Wunderground v.1.15,2013-10-12 22:10:00,
2013-10-12 16:20:00,69.5,33.1,30.02,SSE,165,3.0,3.0,26,0.00,,,0.00,Wunderground v.1.15,2013-10-12 22:20:00,
2013-10-12 16:30:00,70.0,32.5,30.02,South,184,2.0,2.0,25,0.00,,,0.00,Wunderground v.1.15,2013-10-12 22:30:00,
2013-10-12 16:40:00,70.9,33.3,30.01,South,188,1.0,2.0,25,0.00,,,0.00,Wunderground v.1.15,2013-10-12 22:40:00,
2013-10-12 16:50:00,71.2,33.6,30.01,South,189,2.0,2.0,25,0.00,,,0.00,Wunderground v.1.15,2013-10-12 22:50:00,
2013-10-12 17:00:00,70.9,33.3,30.01,South,188,1.0,1.0,25,0.00,,,0.00,Wunderground v.1.15,2013-10-12 23:00:00,
2013-10-12 17:10:00,71.0,33.4,30.00,South,190,1.0,1.0,25,0.00,,,0.00,Wunderground v.1.15,2013-10-12 23:10:00,
2013-10-12 17:20:00,71.3,33.6,30.00,South,190,1.0,1.0,25,0.00,,,0.00,Wunderground v.1.15,2013-10-12 23:20:00,
2013-10-12 17:30:00,71.5,33.8,30.01,South,190,1.0,4.0,25,0.00,,,0.00,Wunderground v.1.15,2013-10-12 23:30:00,
2013-10-12 17:40:00,70.9,34.3,30.00,South,190,1.0,2.0,26,0.00,,,0.00,Wunderground v.1.15,2013-10-12 23:40:00,
2013-10-12 17:50:00,70.8,34.2,30.00,South,190,1.0,4.0,26,0.00,,,0.00,Wunderground v.1.15,2013-10-12 23:50:00,
2013-10-12 18:00:00,70.1,34.5,30.00,South,190,3.0,5.0,27,0.00,,,0.00,Wunderground v.1.15,2013-10-13 00:00:00,
2013-10-12 18:10:00,69.8,34.3,30.00,South,190,2.0,2.0,27,0.00,,,0.00,Wunderground v.1.15,2013-10-13 00:10:00,
2013-10-12 18:20:00,69.6,35.0,30.00,South,190,1.0,1.0,28,0.00,,,0.00,Wunderground v.1.15,2013-10-13 00:20:00,
2013-10-12 18:30:00,69.0,35.4,30.01,South,190,0.0,1.0,29,0.00,,,0.00,Wunderground v.1.15,2013-10-13 00:30:00,
2013-10-12 18:40:00,68.3,35.6,30.01,South,190,0.0,1.0,30,0.00,,,0.00,Wunderground v.1.15,2013-10-13 00:40:00,
2013-10-12 18:50:00,67.5,37.4,30.01,South,190,0.0,1.0,33,0.00,,,0.00,Wunderground v.1.15,2013-10-13 00:50:00,
2013-10-12 19:00:00,66.4,37.9,30.01,South,190,0.0,1.0,35,0.00,,,0.00,Wunderground v.1.15,2013-10-13 01:00:00,
2013-10-12 19:10:00,65.2,38.3,30.02,South,190,0.0,1.0,37,0.00,,,0.00,Wunderground v.1.15,2013-10-13 01:10:00,
2013-10-12 19:20:00,64.2,39.4,30.02,South,190,0.0,1.0,40,0.00,,,0.00,Wunderground v.1.15,2013-10-13 01:20:00,
2013-10-12 19:30:00,62.8,39.4,30.03,South,189,0.0,1.0,42,0.00,,,0.00,Wunderground v.1.15,2013-10-13 01:30:00,
2013-10-12 19:40:00,63.1,36.4,30.03,SE,146,1.0,1.0,37,0.00,,,0.00,Wunderground v.1.15,2013-10-13 01:40:00,
2013-10-12 19:50:00,63.6,36.8,30.04,ESE,121,1.0,1.0,37,0.00,,,0.00,Wunderground v.1.15,2013-10-13 01:50:00,
2013-10-12 20:00:00,63.5,36.7,30.03,ESE,107,2.0,2.0,37,0.00,,,0.00,Wunderground v.1.15,2013-10-13 02:00:00,
2013-10-12 20:10:00,63.4,36.7,30.04,East,88,4.0,4.0,37,0.00,,,0.00,Wunderground v.1.15,2013-10-13 02:10:00,
2013-10-12 20:20:00,63.3,36.6,30.04,East,86,5.0,5.0,37,0.00,,,0.00,Wunderground v.1.15,2013-10-13 02:20:00,
2013-10-12 20:30:00,63.2,36.5,30.03,East,87,3.0,3.0,37,0.00,,,0.00,Wunderground v.1.15,2013-10-13 02:30:00,
2013-10-12 20:40:00,63.0,36.3,30.04,East,82,4.0,11.0,37,0.00,,,0.00,Wunderground v.1.15,2013-10-13 02:40:00,
2013-10-12 20:50:00,62.8,36.1,30.04,East,81,4.0,4.0,37,0.00,,,0.00,Wunderground v.1.15,2013-10-13 02:50:00,
2013-10-12 21:00:00,62.7,36.0,30.04,SE,131,4.0,4.0,37,0.00,,,0.00,Wunderground v.1.15,2013-10-13 03:00:00,
2013-10-12 21:10:00,62.5,36.5,30.04,East,84,5.0,5.0,38,0.00,,,0.00,Wunderground v.1.15,2013-10-13 03:10:00,
2013-10-12 21:20:00,62.2,36.3,30.04,ESE,113,3.0,4.0,38,0.00,,,0.00,Wunderground v.1.15,2013-10-13 03:20:00,
2013-10-12 21:30:00,62.2,36.3,30.04,ENE,76,4.0,4.0,38,0.00,,,0.00,Wunderground v.1.15,2013-10-13 03:30:00,
2013-10-12 21:40:00,62.0,36.1,30.04,ESE,111,3.0,3.0,38,0.00,,,0.00,Wunderground v.1.15,2013-10-13 03:40:00,
2013-10-12 21:50:00,61.9,36.0,30.05,East,97,3.0,6.0,38,0.00,,,0.00,Wunderground v.1.15,2013-10-13 03:50:00,
2013-10-12 22:00:00,61.9,36.0,30.05,ESE,123,4.0,4.0,38,0.00,,,0.00,Wunderground v.1.15,2013-10-13 04:00:00,
2013-10-12 22:10:00,61.8,36.6,30.05,NE,48,3.0,3.0,39,0.00,,,0.00,Wunderground v.1.15,2013-10-13 04:10:00,
2013-10-12 22:20:00,61.6,36.4,30.05,East,96,4.0,4.0,39,0.00,,,0.00,Wunderground v.1.15,2013-10-13 04:20:00,
2013-10-12 22:30:00,61.4,36.2,30.05,ESE,113,3.0,4.0,39,0.00,,,0.00,Wunderground v.1.15,2013-10-13 04:30:00,
2013-10-12 22:40:00,61.5,36.3,30.05,ESE,103,4.0,4.0,39,0.00,,,0.00,Wunderground v.1.15,2013-10-13 04:40:00,
2013-10-12 22:50:00,61.4,36.2,30.05,East,83,3.0,3.0,39,0.00,,,0.00,Wunderground v.1.15,2013-10-13 04:50:00,
2013-10-12 23:00:00,61.1,35.9,30.04,ESE,117,3.0,3.0,39,0.00,,,0.00,Wunderground v.1.15,2013-10-13 05:00:00,
2013-10-12 23:10:00,60.8,36.3,30.04,East,88,2.0,5.0,40,0.00,,,0.00,Wunderground v.1.15,2013-10-13 05:10:00,
2013-10-12 23:20:00,60.8,35.7,30.04,East,101,1.0,1.0,39,0.00,,,0.00,Wunderground v.1.15,2013-10-13 05:20:00,
2013-10-12 23:30:00,60.9,35.8,30.05,East,101,0.0,1.0,39,0.00,,,0.00,Wunderground v.1.15,2013-10-13 05:30:00,
2013-10-12 23:40:00,59.8,37.2,30.05,NE,38,1.0,1.0,43,0.00,,,0.00,Wunderground v.1.15,2013-10-13 05:40:00,
2013-10-12 23:50:00,57.5,37.4,30.05,NE,38,1.0,1.0,47,0.00,,,0.00,Wunderground v.1.15,2013-10-13 05:50:00,